Terminal Aerodrome Forecast
Issued by NWS Sterling, VA

Home | Current Version | Previous Version | Text Only | Print | Product List | Glossary On
Versions: 1 2 3 4 5 6 7 8 9 10 11 12 13 14 15 16 17 18 19 20 21 22
947
FTUS41 KLWX 260531
TAFBWI
TAF
KBWI 260531Z 2606/2712 VRB03KT P6SM SCT025 BKN200
     FM260800 VRB03KT P6SM SCT025 OVC030
     FM261200 VRB03KT 6SM -DZ BR BKN025 OVC040
     FM261700 17010G18KT P6SM BKN025 OVC040
     FM270400 21010KT 5SM -SHRA BKN015 OVC050
     FM270800 29006KT P6SM OVC050=

USA.gov is the U.S. government's official web portal to all federal, state and local government web resources and services.